Time;durP1;ratioP1;P1;durP2;ratioP2;P2;SDS_P1;SDS_P2;PMS_P1;PMS_P2;Temp;Humidity;BMP_temperature;BMP_pressure;BME280_temperature;BME280_humidity;BME280_pressure;Samples;Min_cycle;Max_cycle;Signal;HPM_P1;HPM_P2
2023/01/14 00:01:40;;;;;;;14.43;3.28;;;5.40;99.90;;;;;;4352828;28;10000995;-69
2023/01/14 00:04:06;;;;;;;18.77;3.03;;;5.40;99.90;;;;;;5057776;28;20432;-69
2023/01/14 00:06:33;;;;;;;17.63;2.97;;;5.40;99.90;;;;;;5072595;28;20129;-69
2023/01/14 00:09:01;;;;;;;15.02;2.55;;;5.50;99.90;;;;;;5069364;28;20024;-69
2023/01/14 00:11:46;;;;;;;15.90;3.15;;;5.40;99.90;;;;;;5076578;28;20485;-69
2023/01/14 00:14:15;;;;;;;15.80;3.20;;;5.40;99.90;;;;;;5059902;28;20683;-69
2023/01/14 00:16:42;;;;;;;10.98;2.58;;;5.50;99.90;;;;;;5060264;28;20456;-69
2023/01/14 00:19:07;;;;;;;11.95;3.05;;;5.50;99.90;;;;;;5073985;28;20032;-69
2023/01/14 00:21:33;;;;;;;14.52;2.40;;;5.50;99.90;;;;;;5072255;28;20073;-69
2023/01/14 00:23:59;;;;;;;15.55;2.95;;;5.50;99.90;;;;;;5066776;28;20052;-69
2023/01/14 00:26:25;;;;;;;17.98;2.58;;;5.50;99.90;;;;;;5067632;28;20550;-69
2023/01/14 00:28:51;;;;;;;14.48;2.33;;;5.50;99.90;;;;;;5070438;28;20087;-70
2023/01/14 00:31:22;;;;;;;12.27;2.55;;;5.50;99.90;;;;;;5059126;28;20707;-69
2023/01/14 00:33:47;;;;;;;12.50;2.22;;;5.50;99.90;;;;;;5059156;28;20038;-70
2023/01/14 00:36:15;;;;;;;12.25;2.22;;;5.50;99.90;;;;;;5064635;28;20024;-69
2023/01/14 00:38:41;;;;;;;8.40;2.10;;;5.50;99.90;;;;;;5055891;28;20039;-69
2023/01/14 00:41:14;;;;;;;7.88;1.95;;;5.50;99.90;;;;;;5061748;28;20903;-69
2023/01/14 00:43:41;;;;;;;;;;;5.50;99.90;;;;;;5055499;28;20078;-70
2023/01/14 00:46:10;;;;;;;7.20;1.52;;;5.50;99.90;;;;;;5063201;28;19916;-69
2023/01/14 00:48:36;;;;;;;8.00;1.90;;;5.50;99.90;;;;;;5055635;28;20035;-69
2023/01/14 00:51:03;;;;;;;7.43;1.83;;;5.50;99.90;;;;;;5061695;28;20039;-69
2023/01/14 00:53:29;;;;;;;8.05;1.75;;;5.50;99.90;;;;;;5052179;28;20093;-70
2023/01/14 00:55:54;;;;;;;11.52;1.90;;;5.50;99.90;;;;;;5071161;28;21140;-69
2023/01/14 00:58:20;;;;;;;8.13;2.20;;;5.50;99.90;;;;;;5066584;28;20431;-70
2023/01/14 01:00:46;;;;;;;9.73;1.88;;;5.50;99.90;;;;;;5057857;28;20115;-69
2023/01/14 01:03:12;;;;;;;10.35;2.95;;;5.50;99.90;;;;;;5054817;28;20099;-69
2023/01/14 01:05:38;;;;;;;11.75;2.60;;;5.50;99.90;;;;;;5061604;28;20036;-70
2023/01/14 01:08:06;;;;;;;9.90;2.45;;;5.50;99.90;;;;;;5055718;28;20562;-70
2023/01/14 01:10:34;;;;;;;13.93;2.33;;;5.50;99.90;;;;;;5036585;28;20020;-70
2023/01/14 01:12:59;;;;;;;10.30;2.00;;;5.60;99.90;;;;;;5055625;28;20865;-69
2023/01/14 01:15:25;;;;;;;6.75;1.90;;;5.60;99.90;;;;;;5062320;28;20032;-70
2023/01/14 01:17:50;;;;;;;10.00;1.90;;;5.60;99.90;;;;;;5069861;28;20028;-70
2023/01/14 01:20:16;;;;;;;6.88;1.58;;;5.60;99.90;;;;;;5065105;28;20035;-70
2023/01/14 01:22:41;;;;;;;5.10;1.48;;;5.60;99.90;;;;;;5073337;28;20028;-70
2023/01/14 01:25:07;;;;;;;8.02;1.50;;;5.60;99.90;;;;;;5069928;28;20032;-69
2023/01/14 01:27:33;;;;;;;8.02;1.40;;;5.60;99.90;;;;;;5071409;28;20032;-70
2023/01/14 01:29:59;;;;;;;7.50;1.58;;;5.60;99.90;;;;;;5071395;28;20026;-69
2023/01/14 01:32:25;;;;;;;6.60;1.48;;;5.60;99.90;;;;;;5067475;28;20510;-69
2023/01/14 01:34:51;;;;;;;8.38;1.23;;;5.60;99.90;;;;;;5064178;28;20082;-69
2023/01/14 01:37:16;;;;;;;4.03;1.30;;;5.60;99.90;;;;;;5077113;28;20040;-69
2023/01/14 01:39:42;;;;;;;5.90;1.30;;;5.60;99.90;;;;;;5076328;28;20595;-70
2023/01/14 01:42:14;;;;;;;4.38;1.10;;;5.50;99.90;;;;;;5065764;28;20029;-69
2023/01/14 01:44:40;;;;;;;3.30;0.90;;;5.50;99.90;;;;;;5060652;28;20020;-69
2023/01/14 01:47:07;;;;;;;6.68;1.58;;;5.50;99.90;;;;;;5071799;28;20020;-69
2023/01/14 01:49:35;;;;;;;8.52;1.75;;;5.50;99.90;;;;;;5070688;28;20044;-69
2023/01/14 01:52:04;;;;;;;7.88;1.52;;;5.50;99.90;;;;;;5061337;28;20040;-69
2023/01/14 01:54:35;;;;;;;11.52;1.42;;;5.50;99.90;;;;;;5059259;28;20080;-69
2023/01/14 01:57:03;;;;;;;6.22;1.52;;;5.40;99.90;;;;;;5066442;28;20082;-69
2023/01/14 01:59:49;;;;;;;7.38;1.67;;;5.40;99.90;;;;;;5067311;28;21107;-69
2023/01/14 02:02:15;;;;;;;7.28;1.65;;;5.40;99.90;;;;;;5055538;28;20032;-69
2023/01/14 02:04:41;;;;;;;9.43;2.10;;;5.40;99.90;;;;;;5065178;28;20024;-70
2023/01/14 02:07:22;;;;;;;11.70;1.95;;;5.40;99.90;;;;;;5065409;28;20040;-70
2023/01/14 02:09:52;;;;;;;7.88;1.75;;;5.40;99.90;;;;;;5052716;28;20401;-70
2023/01/14 02:12:59;;;;;;;7.60;1.80;;;5.40;99.90;;;;;;5063908;28;20485;-70
2023/01/14 02:15:43;;;;;;;9.10;1.70;;;5.40;99.90;;;;;;5065604;28;20021;-70
2023/01/14 02:18:27;;;;;;;10.63;2.13;;;5.40;99.90;;;;;;5067687;28;20024;-70
2023/01/14 02:21:03;;;;;;;10.93;2.30;;;5.40;99.90;;;;;;5062415;28;20028;-70
2023/01/14 02:23:56;;;;;;;14.85;2.60;;;5.40;99.90;;;;;;5071559;28;20081;-70
2023/01/14 02:26:24;;;;;;;11.85;2.50;;;5.40;99.90;;;;;;5066229;28;20021;-70
2023/01/14 02:29:28;;;;;;;14.45;2.55;;;5.50;99.90;;;;;;5066714;28;20036;-70
2023/01/14 02:32:17;;;;;;;14.55;2.25;;;5.50;99.90;;;;;;5057096;28;20054;-70
2023/01/14 02:34:50;;;;;;;17.23;2.50;;;5.40;99.90;;;;;;5068877;28;20039;-70
2023/01/14 02:37:28;;;;;;;17.20;2.20;;;5.50;99.90;;;;;;5079209;28;20040;-70
2023/01/14 02:40:20;;;;;;;22.90;3.03;;;5.40;99.90;;;;;;5069848;28;20567;-70
2023/01/14 02:45:55;;;;;;;;;;;5.40;99.90;;;;;;5066898;28;20574;-69
2023/01/14 02:48:23;;;;;;;16.10;2.40;;;5.50;99.90;;;;;;5066128;28;19969;-70
2023/01/14 02:50:50;;;;;;;16.55;2.10;;;5.50;99.90;;;;;;5057773;28;20206;-70
2023/01/14 02:53:18;;;;;;;12.43;2.33;;;5.50;99.90;;;;;;5060301;28;20025;-70
2023/01/14 02:55:44;;;;;;;17.63;2.47;;;5.50;99.90;;;;;;5071442;28;20106;-70
2023/01/14 02:58:28;;;;;;;14.55;2.53;;;5.40;99.90;;;;;;5061090;28;20908;-69
2023/01/14 03:01:02;;;;;;;12.30;2.15;;;5.40;99.90;;;;;;5062518;28;20405;-70
2023/01/14 03:03:47;;;;;;;14.32;2.53;;;5.40;99.90;;;;;;5064789;28;20028;-69
2023/01/14 03:06:43;;;;;;;9.18;1.90;;;5.30;99.90;;;;;;5063507;28;20043;-69
2023/01/14 03:09:17;;;;;;;9.10;2.03;;;5.40;99.90;;;;;;5060112;28;20498;-69
2023/01/14 03:12:04;;;;;;;8.75;2.00;;;5.30;99.90;;;;;;5069293;28;20060;-70
2023/01/14 03:14:38;;;;;;;13.10;2.10;;;5.30;99.90;;;;;;5052714;28;20096;-70
2023/01/14 03:17:38;;;;;;;10.23;1.58;;;5.40;99.90;;;;;;5057748;28;20024;-69
2023/01/14 03:20:07;;;;;;;13.30;2.33;;;5.30;99.90;;;;;;5058037;28;20056;-69
2023/01/14 03:22:34;;;;;;;10.32;1.98;;;5.30;99.90;;;;;;5062972;28;20021;-70
2023/01/14 03:25:02;;;;;;;10.30;2.38;;;5.30;99.90;;;;;;5067294;28;20503;-70
2023/01/14 03:27:32;;;;;;;13.55;2.22;;;5.20;99.90;;;;;;5071601;28;20604;-70
2023/01/14 03:30:04;;;;;;;15.00;2.90;;;5.20;99.90;;;;;;5062232;28;20035;-70
2023/01/14 03:32:39;;;;;;;21.60;2.60;;;5.20;99.90;;;;;;5066210;28;20077;-70
2023/01/14 03:35:11;;;;;;;14.32;2.45;;;5.20;99.90;;;;;;5063028;28;20036;-70
2023/01/14 03:37:45;;;;;;;15.27;2.60;;;5.10;99.90;;;;;;5073616;28;20040;-70
2023/01/14 03:40:14;;;;;;;14.45;2.33;;;5.20;99.90;;;;;;5069011;28;20513;-70
2023/01/14 03:42:45;;;;;;;15.35;2.58;;;5.10;99.90;;;;;;5056523;28;20040;-70
2023/01/14 03:45:20;;;;;;;12.85;2.20;;;5.10;99.90;;;;;;5072149;28;20698;-70
2023/01/14 03:47:46;;;;;;;11.77;2.17;;;5.10;99.90;;;;;;5069127;28;20687;-70
2023/01/14 03:50:15;;;;;;;15.00;2.38;;;5.10;99.90;;;;;;5064225;28;20108;-70
2023/01/14 03:52:56;;;;;;;16.42;2.53;;;5.10;99.90;;;;;;5059300;28;20021;-70
2023/01/14 03:55:35;;;;;;;13.95;2.13;;;5.10;99.90;;;;;;5064286;28;20062;-70
2023/01/14 03:58:22;;;;;;;18.05;2.33;;;5.10;99.90;;;;;;5061196;28;20034;-70
2023/01/14 04:00:55;;;;;;;13.57;2.63;;;5.10;99.90;;;;;;5057721;28;20551;-70
2023/01/14 04:03:22;;;;;;;17.70;2.53;;;5.10;99.90;;;;;;5054143;28;20037;-70
2023/01/14 04:05:47;;;;;;;16.35;2.25;;;5.10;99.90;;;;;;5060302;28;20450;-70
2023/01/14 04:08:13;;;;;;;15.75;2.58;;;5.00;99.90;;;;;;5054899;28;20103;-70
2023/01/14 04:10:39;;;;;;;15.43;2.80;;;5.00;99.90;;;;;;5074298;28;20031;-70
2023/01/14 04:15:49;;;;;;;18.60;2.80;;;4.90;99.90;;;;;;5063725;28;20039;-70
2023/01/14 04:18:14;;;;;;;18.50;2.67;;;4.90;99.90;;;;;;5058903;28;20025;-70
2023/01/14 04:20:40;;;;;;;18.58;2.20;;;4.90;99.90;;;;;;5067229;28;20020;-70
2023/01/14 04:23:05;;;;;;;19.00;2.78;;;4.90;99.90;;;;;;5064618;28;20040;-70
2023/01/14 04:25:31;;;;;;;19.92;3.25;;;4.90;99.90;;;;;;5066561;28;20056;-70
2023/01/14 04:27:56;;;;;;;17.42;3.00;;;4.90;99.90;;;;;;5064040;28;20384;-70
2023/01/14 04:30:22;;;;;;;17.52;2.95;;;4.90;99.90;;;;;;5057624;28;20029;-70
2023/01/14 04:32:47;;;;;;;21.80;3.03;;;4.90;99.90;;;;;;5060351;28;20090;-70
2023/01/14 04:35:13;;;;;;;16.48;2.72;;;4.90;99.90;;;;;;5065918;28;20484;-70
2023/01/14 04:37:39;;;;;;;23.50;2.85;;;4.80;99.90;;;;;;5064626;28;20123;-70
2023/01/14 04:40:05;;;;;;;21.40;2.83;;;4.80;99.90;;;;;;5059281;28;20029;-70
2023/01/14 04:42:31;;;;;;;20.05;2.80;;;4.80;99.90;;;;;;5058866;28;20511;-70
2023/01/14 04:44:59;;;;;;;26.92;3.40;;;4.80;99.90;;;;;;5063674;28;20028;-70
2023/01/14 04:47:25;;;;;;;20.85;2.63;;;4.80;99.90;;;;;;5070113;28;20028;-70
2023/01/14 04:49:51;;;;;;;14.95;2.90;;;4.80;99.90;;;;;;5057510;28;20055;-70
2023/01/14 04:52:18;;;;;;;21.80;3.17;;;4.70;99.90;;;;;;5060047;28;20028;-70
2023/01/14 04:54:44;;;;;;;15.68;3.00;;;4.70;99.90;;;;;;5056740;28;20036;-70
2023/01/14 04:57:09;;;;;;;24.42;3.40;;;4.70;99.90;;;;;;5066589;28;20028;-70
2023/01/14 04:59:35;;;;;;;19.92;3.10;;;4.70;99.90;;;;;;5066159;28;20025;-70
2023/01/14 05:02:00;;;;;;;20.60;2.67;;;4.60;99.90;;;;;;5057918;28;20126;-70
2023/01/14 05:04:26;;;;;;;15.32;2.53;;;4.60;99.90;;;;;;5059240;28;20056;-70
2023/01/14 05:06:53;;;;;;;21.55;2.75;;;4.60;99.90;;;;;;5064754;28;20819;-70
2023/01/14 05:09:19;;;;;;;21.92;2.83;;;4.60;99.90;;;;;;5054912;28;20033;-70
2023/01/14 05:11:45;;;;;;;19.70;3.42;;;4.60;99.90;;;;;;5064820;28;20032;-69
2023/01/14 05:14:11;;;;;;;25.67;3.33;;;4.60;99.90;;;;;;5058139;28;20087;-70
2023/01/14 05:16:37;;;;;;;20.55;3.40;;;4.60;99.90;;;;;;5061386;28;20071;-70
2023/01/14 05:19:03;;;;;;;22.20;3.40;;;4.70;99.90;;;;;;5058520;28;21829;-70
2023/01/14 05:21:28;;;;;;;23.88;3.40;;;4.70;99.90;;;;;;5066706;28;20032;-70
2023/01/14 05:23:54;;;;;;;25.40;3.55;;;4.80;99.90;;;;;;5055775;28;20063;-70
2023/01/14 05:26:19;;;;;;;23.13;3.92;;;4.90;99.90;;;;;;5060828;28;20036;-70
2023/01/14 05:28:45;;;;;;;24.38;4.07;;;4.90;99.90;;;;;;5069151;28;20029;-70
2023/01/14 05:31:10;;;;;;;24.58;3.88;;;5.00;99.90;;;;;;5066990;28;20108;-69
2023/01/14 05:33:36;;;;;;;22.85;3.47;;;5.00;99.90;;;;;;5069670;28;20031;-70
2023/01/14 05:36:02;;;;;;;28.02;4.20;;;5.00;99.90;;;;;;5066845;28;20437;-70
2023/01/14 05:38:28;;;;;;;27.27;3.22;;;5.10;99.90;;;;;;5066006;28;20541;-70
2023/01/14 05:40:54;;;;;;;21.23;3.40;;;5.10;99.90;;;;;;5057622;28;20058;-70
2023/01/14 05:46:06;;;;;;;25.52;3.78;;;5.10;99.90;;;;;;5063263;28;20039;-70
2023/01/14 05:48:32;;;;;;;21.25;2.70;;;5.10;99.90;;;;;;5064569;28;20365;-69
2023/01/14 05:50:59;;;;;;;23.33;3.17;;;5.10;99.90;;;;;;5061534;28;20597;-70
2023/01/14 05:53:27;;;;;;;22.73;2.80;;;5.10;99.90;;;;;;5056826;28;20055;-70
2023/01/14 05:55:53;;;;;;;19.02;3.00;;;5.00;99.90;;;;;;5056423;28;20032;-70
2023/01/14 05:58:19;;;;;;;20.90;3.60;;;5.00;99.90;;;;;;5064406;28;20033;-70
2023/01/14 06:06:22;;;;;;;23.85;6.45;;;5.10;99.90;;;;;;5065724;28;20519;-70
2023/01/14 06:08:49;;;;;;;23.67;6.30;;;5.00;99.90;;;;;;5062049;28;20374;-70
2023/01/14 06:11:14;;;;;;;28.67;7.18;;;5.00;99.90;;;;;;5058244;28;20542;-70
2023/01/14 06:13:41;;;;;;;32.85;5.85;;;5.00;99.90;;;;;;5065891;28;20103;-70
2023/01/14 06:16:07;;;;;;;19.88;4.20;;;4.90;99.90;;;;;;5063512;28;20033;-70
2023/01/14 06:18:42;;;;;;;20.15;3.42;;;4.90;99.90;;;;;;5062065;28;20021;-71
2023/01/14 06:21:12;;;;;;;22.05;3.40;;;4.90;99.90;;;;;;5055919;28;20032;-70
2023/01/14 06:23:38;;;;;;;21.48;3.78;;;4.90;99.90;;;;;;5058016;28;20016;-70
2023/01/14 06:26:07;;;;;;;26.20;3.90;;;4.90;99.90;;;;;;5073778;28;20024;-70
2023/01/14 06:28:33;;;;;;;20.05;3.22;;;4.80;99.90;;;;;;5060428;28;20158;-70
2023/01/14 06:30:59;;;;;;;22.20;3.97;;;4.90;99.90;;;;;;5070576;28;20729;-70
2023/01/14 06:33:24;;;;;;;21.05;3.25;;;4.80;99.90;;;;;;5069816;28;20088;-70
2023/01/14 06:35:50;;;;;;;18.77;3.58;;;4.80;99.90;;;;;;5059065;28;20052;-70
2023/01/14 06:38:16;;;;;;;24.23;3.63;;;4.80;99.90;;;;;;5057988;28;20029;-70
2023/01/14 06:40:42;;;;;;;16.77;3.50;;;4.80;99.90;;;;;;5062227;28;20033;-70
2023/01/14 06:43:08;;;;;;;22.70;3.45;;;4.80;99.90;;;;;;5055264;28;20051;-71
2023/01/14 06:45:34;;;;;;;25.48;3.20;;;4.80;99.90;;;;;;5057865;28;20123;-70
2023/01/14 06:48:00;;;;;;;26.05;3.60;;;4.90;99.90;;;;;;5059585;28;20040;-70
2023/01/14 06:50:26;;;;;;;26.95;3.90;;;4.90;99.90;;;;;;5052203;28;20082;-70
2023/01/14 06:52:54;;;;;;;23.27;3.80;;;4.80;99.90;;;;;;5058049;28;20029;-70
2023/01/14 06:55:21;;;;;;;21.27;4.07;;;4.80;99.90;;;;;;5057700;28;20025;-70
2023/01/14 06:57:46;;;;;;;29.75;4.50;;;4.90;99.90;;;;;;5059581;28;20021;-70
2023/01/14 07:00:13;;;;;;;26.10;4.57;;;4.90;99.90;;;;;;5067041;28;20097;-70
2023/01/14 07:02:39;;;;;;;22.40;4.43;;;4.90;99.90;;;;;;5047312;28;20040;-70
2023/01/14 07:05:06;;;;;;;18.27;3.70;;;4.90;99.90;;;;;;5053817;28;20031;-70
2023/01/14 07:07:31;;;;;;;21.13;3.83;;;4.90;99.90;;;;;;5064376;28;20032;-70
2023/01/14 07:09:57;;;;;;;22.42;4.05;;;4.90;99.90;;;;;;5067400;28;20085;-70
2023/01/14 07:12:23;;;;;;;22.98;3.95;;;4.90;99.90;;;;;;5048548;28;20016;-70
2023/01/14 07:14:48;;;;;;;15.95;3.38;;;4.90;99.90;;;;;;5053780;28;20028;-69
2023/01/14 07:17:14;;;;;;;21.55;3.75;;;4.90;99.90;;;;;;5047887;28;20111;-71
2023/01/14 07:19:40;;;;;;;22.23;5.00;;;4.90;99.90;;;;;;5057183;28;20027;-70
2023/01/14 07:22:06;;;;;;;25.67;4.85;;;4.90;99.90;;;;;;5066678;28;20077;-70
2023/01/14 07:24:31;;;;;;;22.88;4.07;;;5.00;99.90;;;;;;5063265;28;20060;-70
2023/01/14 07:26:57;;;;;;;23.08;3.92;;;5.00;99.90;;;;;;5064454;28;20128;-71
2023/01/14 07:29:22;;;;;;;20.52;3.67;;;5.00;99.90;;;;;;5064754;28;20103;-71
2023/01/14 07:31:48;;;;;;;23.45;3.60;;;5.00;99.90;;;;;;5062784;28;20024;-71
2023/01/14 07:34:14;;;;;;;27.27;4.68;;;5.00;99.90;;;;;;5059344;28;20106;-71
2023/01/14 07:36:39;;;;;;;20.23;3.65;;;4.90;99.90;;;;;;5073625;28;20123;-71
2023/01/14 07:39:05;;;;;;;22.13;3.83;;;4.90;99.90;;;;;;5067981;28;20024;-71
2023/01/14 07:41:31;;;;;;;21.73;3.40;;;4.90;99.90;;;;;;5075669;28;20482;-71
2023/01/14 07:43:56;;;;;;;30.75;3.97;;;4.90;99.90;;;;;;5057656;28;20052;-70
2023/01/14 07:46:22;;;;;;;32.58;8.18;;;4.90;99.90;;;;;;5055859;28;20040;-70
2023/01/14 07:48:48;;;;;;;25.75;6.53;;;4.90;99.90;;;;;;5059110;28;20044;-70
2023/01/14 07:51:20;;;;;;;24.50;5.95;;;4.90;99.90;;;;;;5068794;28;20033;-71
2023/01/14 07:53:49;;;;;;;19.02;7.03;;;4.90;99.90;;;;;;5066143;28;20024;-70
2023/01/14 07:56:15;;;;;;;23.38;6.63;;;4.90;99.90;;;;;;5058355;28;20048;-70
2023/01/14 07:58:41;;;;;;;23.98;6.78;;;4.90;99.90;;;;;;5070801;28;20032;-70
2023/01/14 08:01:07;;;;;;;21.90;4.72;;;4.90;99.90;;;;;;5059815;28;20024;-70
2023/01/14 08:03:33;;;;;;;19.35;5.28;;;4.90;99.90;;;;;;5078151;28;20141;-71
2023/01/14 08:06:06;;;;;;;24.13;4.65;;;4.90;99.90;;;;;;5063350;28;20675;-71
2023/01/14 08:08:33;;;;;;;23.10;4.63;;;4.90;99.90;;;;;;5057209;28;20108;-70
2023/01/14 08:10:59;;;;;;;27.25;5.15;;;4.90;99.90;;;;;;5061236;28;20056;-71
2023/01/14 08:13:27;;;;;;;24.10;4.32;;;5.00;99.90;;;;;;5060512;28;20029;-71
2023/01/14 08:15:57;;;;;;;25.92;4.53;;;5.00;99.90;;;;;;5060604;28;20041;-71
2023/01/14 08:18:23;;;;;;;19.70;4.00;;;5.00;99.90;;;;;;5066358;28;20040;-71
2023/01/14 08:20:58;;;;;;;26.08;4.03;;;5.00;99.90;;;;;;5061058;28;20043;-71
2023/01/14 08:23:24;;;;;;;25.50;3.90;;;5.00;99.90;;;;;;5049924;28;20084;-71
2023/01/14 08:25:50;;;;;;;19.17;3.80;;;5.00;99.90;;;;;;5067198;28;20490;-71
2023/01/14 08:28:16;;;;;;;18.60;3.92;;;5.00;99.90;;;;;;5063026;28;20063;-71
2023/01/14 08:30:41;;;;;;;31.30;4.97;;;5.00;99.90;;;;;;5063974;28;20539;-71
2023/01/14 08:33:07;;;;;;;18.77;4.45;;;5.10;99.90;;;;;;5076520;28;20165;-71
2023/01/14 08:35:37;;;;;;;24.75;4.35;;;5.10;99.90;;;;;;5064518;28;20032;-71
2023/01/14 08:38:02;;;;;;;23.00;4.38;;;5.10;99.90;;;;;;5066400;28;20024;-71
2023/01/14 08:40:28;;;;;;;24.45;4.15;;;5.10;99.90;;;;;;5081584;28;20035;-71
2023/01/14 08:42:54;;;;;;;26.88;4.32;;;5.10;99.90;;;;;;5052284;28;20149;-71
2023/01/14 08:45:19;;;;;;;25.42;5.03;;;5.20;99.90;;;;;;5057132;28;20042;-71
2023/01/14 08:47:45;;;;;;;23.27;4.70;;;5.20;99.90;;;;;;5064305;28;20025;-70
2023/01/14 08:50:10;;;;;;;21.92;4.57;;;5.30;99.90;;;;;;5053165;28;20134;-70
2023/01/14 08:52:36;;;;;;;21.10;4.15;;;5.30;99.90;;;;;;5058684;28;20032;-71
2023/01/14 08:55:02;;;;;;;29.02;4.65;;;5.30;99.90;;;;;;5050814;28;20106;-70
2023/01/14 08:57:28;;;;;;;23.27;4.75;;;5.30;99.90;;;;;;5056357;28;20074;-70
2023/01/14 08:59:54;;;;;;;20.23;5.45;;;5.40;99.90;;;;;;5067906;28;20036;-70
2023/01/14 09:02:19;;;;;;;28.17;7.75;;;5.40;99.90;;;;;;5059433;28;20331;-71
2023/01/14 09:04:45;;;;;;;26.85;6.63;;;5.40;99.90;;;;;;5064738;28;20025;-70
2023/01/14 09:18:07;;;;;;;22.10;5.22;;;5.60;99.90;;;;;;5065597;28;20546;-70
2023/01/14 09:20:39;;;;;;;19.83;5.43;;;5.60;99.90;;;;;;5070319;28;20550;-71
2023/01/14 09:23:07;;;;;;;21.33;3.83;;;5.70;99.90;;;;;;5058723;28;20025;-71
2023/01/14 09:25:33;;;;;;;29.13;6.03;;;5.70;99.90;;;;;;5083075;28;20294;-71
2023/01/14 09:27:58;;;;;;;25.95;6.00;;;5.70;99.90;;;;;;5063077;28;20451;-70
2023/01/14 09:30:26;;;;;;;28.52;5.22;;;5.70;99.90;;;;;;5063175;28;20032;-70
2023/01/14 09:32:51;;;;;;;30.38;6.07;;;5.70;99.90;;;;;;5062567;28;20054;-71
2023/01/14 09:35:17;;;;;;;20.67;6.22;;;5.70;99.90;;;;;;5063434;28;20530;-71
2023/01/14 09:37:43;;;;;;;30.98;5.53;;;5.70;99.90;;;;;;5066937;28;20266;-70
2023/01/14 09:40:09;;;;;;;27.02;4.57;;;5.80;99.90;;;;;;5071389;28;20040;-71
2023/01/14 09:42:39;;;;;;;28.02;4.65;;;5.80;99.90;;;;;;5058678;28;20119;-71
2023/01/14 09:45:23;;;;;;;23.08;4.72;;;5.80;99.90;;;;;;5060511;28;20079;-71
2023/01/14 09:47:49;;;;;;;25.73;4.75;;;5.90;99.90;;;;;;5086806;28;20056;-71
2023/01/14 09:50:19;;;;;;;25.13;4.47;;;6.00;99.90;;;;;;5069062;28;20028;-71
2023/01/14 09:53:16;;;;;;;27.70;4.85;;;6.00;99.90;;;;;;5060168;28;20086;-70
2023/01/14 09:55:51;;;;;;;21.23;4.07;;;6.00;99.90;;;;;;5068804;28;20036;-71
2023/01/14 09:58:34;;;;;;;28.33;5.20;;;6.10;99.90;;;;;;5063411;28;20021;-71
2023/01/14 10:01:15;;;;;;;30.92;5.22;;;6.20;99.90;;;;;;5060771;28;20020;-70
2023/01/14 10:04:22;;;;;;;22.50;3.97;;;6.20;99.90;;;;;;5072052;28;20027;-71
2023/01/14 10:06:51;;;;;;;21.42;4.13;;;6.30;99.90;;;;;;5067083;28;20028;-70
2023/01/14 10:09:30;;;;;;;24.38;4.35;;;6.30;99.90;;;;;;5074839;28;20028;-71
2023/01/14 10:11:59;;;;;;;25.33;4.47;;;6.30;99.90;;;;;;5061048;28;20021;-70
2023/01/14 10:14:32;;;;;;;21.60;3.88;;;6.30;99.90;;;;;;5063237;28;20134;-71
2023/01/14 10:17:02;;;;;;;20.77;4.38;;;;;;;;;;5071855;28;20036;-71
2023/01/14 10:19:44;;;;;;;28.88;3.88;;;6.30;99.90;;;;;;5060160;28;20033;-70
2023/01/14 10:22:20;;;;;;;25.55;4.30;;;6.30;99.90;;;;;;5066354;28;20020;-71
2023/01/14 10:24:46;;;;;;;25.55;3.83;;;6.30;99.90;;;;;;5074901;28;20036;-70
2023/01/14 10:27:16;;;;;;;18.35;3.22;;;6.40;99.90;;;;;;5061526;28;20098;-71
2023/01/14 10:29:42;;;;;;;13.93;3.25;;;;;;;;;;5061597;28;20107;-70
2023/01/14 10:32:11;;;;;;;21.00;3.35;;;;;;;;;;5076186;28;20135;-71
2023/01/14 10:34:37;;;;;;;16.80;3.30;;;;;;;;;;5064070;28;20032;-70
2023/01/14 10:37:03;;;;;;;20.90;3.50;;;;;;;;;;5060266;28;20545;-70
2023/01/14 10:39:29;;;;;;;21.83;3.63;;;;;;;;;;5054874;28;20020;-71
2023/01/14 10:42:00;;;;;;;17.50;3.47;;;;;;;;;;5064574;28;20388;-71
2023/01/14 10:44:30;;;;;;;20.55;2.88;;;;;;;;;;5060767;28;20054;-70
2023/01/14 10:47:10;;;;;;;16.75;2.88;;;;;;;;;;5074436;28;20037;-70
2023/01/14 10:49:42;;;;;;;15.77;2.58;;;;;;;;;;5062046;28;20053;-71
2023/01/14 10:52:20;;;;;;;14.00;2.28;;;;;;;;;;5060878;28;20029;-70
2023/01/14 10:54:56;;;;;;;12.88;2.45;;;;;;;;;;5065423;28;20032;-70
2023/01/14 10:57:22;;;;;;;14.40;2.47;;;6.50;99.90;;;;;;5064906;28;20396;-71
2023/01/14 10:59:52;;;;;;;14.88;3.22;;;6.50;99.90;;;;;;5064881;28;20020;-71
2023/01/14 11:02:33;;;;;;;16.75;2.75;;;6.50;99.90;;;;;;5063129;28;20082;-71
2023/01/14 11:05:00;;;;;;;12.10;2.58;;;6.50;99.90;;;;;;5059613;28;20051;-71
2023/01/14 11:07:36;;;;;;;13.88;2.95;;;6.50;99.90;;;;;;5063467;28;20112;-70
2023/01/14 11:10:16;;;;;;;12.35;2.80;;;6.50;99.90;;;;;;5069508;28;20029;-71
2023/01/14 11:12:42;;;;;;;14.63;3.00;;;6.50;99.90;;;;;;5065797;28;20025;-71
2023/01/14 11:15:40;;;;;;;11.43;3.38;;;6.50;99.90;;;;;;5055367;28;20451;-72
2023/01/14 11:18:18;;;;;;;18.23;3.25;;;6.50;99.90;;;;;;5072387;28;20400;-71
2023/01/14 11:20:56;;;;;;;12.73;3.88;;;6.60;99.90;;;;;;5058762;28;20039;-71
2023/01/14 11:23:30;;;;;;;13.52;3.00;;;6.60;99.90;;;;;;5058671;28;20025;-71
2023/01/14 11:26:10;;;;;;;11.50;3.50;;;6.60;99.90;;;;;;5061237;28;20500;-71
2023/01/14 11:28:41;;;;;;;13.15;4.70;;;6.60;99.90;;;;;;5065924;28;20050;-71
2023/01/14 11:31:07;;;;;;;12.60;3.83;;;;;;;;;;5056428;28;20028;-70
2023/01/14 11:33:33;;;;;;;15.63;4.10;;;6.60;99.90;;;;;;5061192;28;20024;-71
2023/01/14 11:36:01;;;;;;;13.23;3.58;;;6.60;99.90;;;;;;5056389;28;20020;-71
2023/01/14 11:38:28;;;;;;;10.23;3.47;;;6.60;99.90;;;;;;5064388;28;20036;-71
2023/01/14 11:43:52;;;;;;;12.77;4.05;;;6.60;99.90;;;;;;5061220;28;20027;-71
2023/01/14 11:46:18;;;;;;;13.88;4.57;;;6.70;99.90;;;;;;5058571;28;20544;-71
2023/01/14 11:48:53;;;;;;;12.05;4.47;;;6.70;99.90;;;;;;5064112;28;20041;-71
2023/01/14 11:51:21;;;;;;;18.27;4.63;;;6.70;99.90;;;;;;5054209;28;20052;-70
2023/01/14 11:53:52;;;;;;;16.00;5.18;;;6.70;99.90;;;;;;5053882;28;20165;-71
2023/01/14 11:56:34;;;;;;;10.48;3.38;;;6.70;99.90;;;;;;5064003;28;20043;-71
2023/01/14 11:59:11;;;;;;;13.02;4.20;;;6.80;99.90;;;;;;5062324;28;20605;-70
2023/01/14 12:01:42;;;;;;;12.95;2.67;;;6.70;99.90;;;;;;5060431;28;20427;-71
2023/01/14 12:04:19;;;;;;;10.38;2.83;;;6.70;99.90;;;;;;5056569;28;20036;-71
2023/01/14 12:06:54;;;;;;;10.32;2.33;;;6.80;99.90;;;;;;5057423;28;20040;-71
2023/01/14 12:09:54;;;;;;;12.57;3.25;;;6.80;99.90;;;;;;5058013;28;20031;-70
2023/01/14 12:12:27;;;;;;;11.23;2.85;;;6.80;99.90;;;;;;5061642;28;20115;-71
2023/01/14 12:17:59;;;;;;;8.20;2.95;;;6.80;99.90;;;;;;5063702;28;20526;-71
2023/01/14 12:20:28;;;;;;;9.40;3.67;;;6.80;99.90;;;;;;5061152;28;20037;-71
2023/01/14 12:23:08;;;;;;;10.93;3.90;;;6.80;99.90;;;;;;5059635;28;20043;-71
2023/01/14 12:25:42;;;;;;;11.52;3.60;;;6.80;99.90;;;;;;5047437;28;20032;-71
2023/01/14 12:28:13;;;;;;;10.23;3.97;;;6.80;99.90;;;;;;5063744;28;20512;-71
2023/01/14 12:31:06;;;;;;;10.65;3.70;;;6.80;99.90;;;;;;5058602;28;20029;-70
2023/01/14 12:33:31;;;;;;;10.35;4.10;;;6.80;99.90;;;;;;5074017;28;20108;-71
2023/01/14 12:35:57;;;;;;;12.43;4.15;;;6.80;99.90;;;;;;5066108;28;20466;-70
2023/01/14 12:47:38;;;;;;;14.43;4.60;;;6.80;99.90;;;;;;5058543;28;20090;-70
2023/01/14 12:50:08;;;;;;;8.43;3.97;;;6.90;99.90;;;;;;5065677;28;20501;-71
2023/01/14 12:52:38;;;;;;;12.20;3.90;;;6.90;99.90;;;;;;5058924;28;20110;-72
2023/01/14 12:55:05;;;;;;;14.65;4.80;;;;;;;;;;5060467;28;20436;-73
2023/01/14 12:57:37;;;;;;;12.80;3.80;;;6.90;99.90;;;;;;5059949;28;20484;-72
2023/01/14 13:00:10;;;;;;;11.10;3.63;;;6.90;99.90;;;;;;5073451;28;20029;-72
2023/01/14 13:02:46;;;;;;;11.25;4.00;;;6.90;99.90;;;;;;5055644;28;20033;-72
2023/01/14 13:05:17;;;;;;;10.02;4.00;;;6.90;99.90;;;;;;5054736;28;20044;-73
2023/01/14 13:08:03;;;;;;;17.90;4.28;;;6.90;99.90;;;;;;5058547;28;20028;-73
2023/01/14 13:10:35;;;;;;;12.85;3.95;;;7.00;99.90;;;;;;5063472;28;20134;-72
2023/01/14 13:13:07;;;;;;;11.30;4.55;;;7.00;99.90;;;;;;5060298;28;20158;-72
2023/01/14 13:15:37;;;;;;;13.10;3.65;;;7.00;99.90;;;;;;5067693;28;20039;-73
2023/01/14 13:18:35;;;;;;;14.15;3.65;;;7.00;99.90;;;;;;5065881;28;20522;-72
2023/01/14 13:21:04;;;;;;;12.63;4.53;;;7.00;99.90;;;;;;5067441;28;20085;-72
2023/01/14 13:23:35;;;;;;;11.23;3.85;;;7.00;99.90;;;;;;5058161;28;20029;-72
2023/01/14 13:26:02;;;;;;;9.13;3.42;;;7.00;99.90;;;;;;5065660;28;20066;-72
2023/01/14 13:28:28;;;;;;;11.48;2.70;;;7.00;99.90;;;;;;5065022;28;20051;-72
2023/01/14 13:30:59;;;;;;;10.65;3.15;;;7.00;99.90;;;;;;5068111;28;20048;-72
2023/01/14 13:33:37;;;;;;;10.68;3.10;;;7.00;99.90;;;;;;5063983;28;20400;-71
2023/01/14 13:36:09;;;;;;;8.68;2.50;;;;;;;;;;5061174;28;20397;-72
2023/01/14 13:38:59;;;;;;;6.50;2.70;;;7.10;99.90;;;;;;5063956;28;20036;-72
2023/01/14 13:41:31;;;;;;;6.97;2.38;;;7.10;99.90;;;;;;5062754;28;20037;-72
2023/01/14 13:43:57;;;;;;;6.95;2.97;;;7.10;99.90;;;;;;5060298;28;20028;-72
2023/01/14 13:46:34;;;;;;;7.38;2.50;;;7.10;99.90;;;;;;5046999;28;20025;-72
2023/01/14 13:49:03;;;;;;;6.70;3.30;;;7.10;99.90;;;;;;5076729;28;20051;-72